sensor_id;sensor_type;location;lat;lon;timestamp;pressure;altitude;pressure_sealevel;temperature;humidity
44920;BME280;30655;53.094;6.072;2022-09-13T00:02:17;101089.28;;;19.23;90.67
44920;BME280;30655;53.094;6.072;2022-09-13T00:04:50;101003.47;;;18.80;90.96
44920;BME280;30655;53.094;6.072;2022-09-13T00:07:17;101023.81;;;18.96;90.96
44920;BME280;30655;53.094;6.072;2022-09-13T00:09:49;101061.72;;;19.28;91.08
44920;BME280;30655;53.094;6.072;2022-09-13T00:12:25;101017.19;;;18.97;91.24
44920;BME280;30655;53.094;6.072;2022-09-13T00:14:52;101043.34;;;19.29;91.75
44920;BME280;30655;53.094;6.072;2022-09-13T00:17:25;101047.19;;;19.28;91.69
44920;BME280;30655;53.094;6.072;2022-09-13T00:20:00;101035.28;;;19.24;92.58
44920;BME280;30655;53.094;6.072;2022-09-13T00:22:28;101047.53;;;19.26;92.23
44920;BME280;30655;53.094;6.072;2022-09-13T00:24:57;101036.41;;;19.23;92.35
44920;BME280;30655;53.094;6.072;2022-09-13T00:27:38;100883.50;;;18.25;91.81
44920;BME280;30655;53.094;6.072;2022-09-13T00:30:14;100841.47;;;18.13;92.19
44920;BME280;30655;53.094;6.072;2022-09-13T00:32:41;100994.63;;;19.09;92.03
44920;BME280;30655;53.094;6.072;2022-09-13T00:35:09;100950.16;;;18.77;92.54
44920;BME280;30655;53.094;6.072;2022-09-13T00:37:36;101031.09;;;19.26;92.48
44920;BME280;30655;53.094;6.072;2022-09-13T00:40:09;100916.28;;;18.56;92.32
44920;BME280;30655;53.094;6.072;2022-09-13T00:42:36;100915.97;;;18.58;92.47
44920;BME280;30655;53.094;6.072;2022-09-13T00:45:14;100985.00;;;19.11;92.18
44920;BME280;30655;53.094;6.072;2022-09-13T00:47:44;100969.16;;;18.91;92.50
44920;BME280;30655;53.094;6.072;2022-09-13T00:50:20;100969.47;;;18.89;92.51
44920;BME280;30655;53.094;6.072;2022-09-13T00:52:52;100898.19;;;18.46;92.51
44920;BME280;30655;53.094;6.072;2022-09-13T00:55:24;101014.31;;;19.19;92.75
44920;BME280;30655;53.094;6.072;2022-09-13T00:58:03;100936.94;;;18.79;92.34
44920;BME280;30655;53.094;6.072;2022-09-13T01:00:31;100933.88;;;18.81;92.66
44920;BME280;30655;53.094;6.072;2022-09-13T01:03:02;100890.03;;;18.55;92.58
44920;BME280;30655;53.094;6.072;2022-09-13T01:05:34;100927.44;;;18.77;93.21
44920;BME280;30655;53.094;6.072;2022-09-13T01:08:04;100937.09;;;18.83;93.00
44920;BME280;30655;53.094;6.072;2022-09-13T01:10:33;100935.66;;;18.77;92.84
44920;BME280;30655;53.094;6.072;2022-09-13T01:13:04;100898.41;;;18.59;92.84
44920;BME280;30655;53.094;6.072;2022-09-13T01:15:34;100983.84;;;19.04;92.94
44920;BME280;30655;53.094;6.072;2022-09-13T01:18:01;100998.03;;;19.14;93.24
44920;BME280;30655;53.094;6.072;2022-09-13T01:20:53;100904.38;;;18.61;93.15
44920;BME280;30655;53.094;6.072;2022-09-13T01:23:46;100984.84;;;19.16;93.08
44920;BME280;30655;53.094;6.072;2022-09-13T01:32:37;100878.78;;;18.57;93.19
44920;BME280;30655;53.094;6.072;2022-09-13T01:35:12;100878.09;;;18.51;93.28
44920;BME280;30655;53.094;6.072;2022-09-13T01:37:49;100949.34;;;18.94;93.24
44920;BME280;30655;53.094;6.072;2022-09-13T01:40:32;100975.00;;;19.15;93.22
44920;BME280;30655;53.094;6.072;2022-09-13T01:43:11;100955.31;;;19.05;94.53
44920;BME280;30655;53.094;6.072;2022-09-13T01:45:52;100958.72;;;19.10;93.38
44920;BME280;30655;53.094;6.072;2022-09-13T01:48:28;100902.28;;;18.75;93.51
44920;BME280;30655;53.094;6.072;2022-09-13T01:51:01;100932.91;;;18.94;93.61
44920;BME280;30655;53.094;6.072;2022-09-13T01:53:38;100952.75;;;19.08;93.82
44920;BME280;30655;53.094;6.072;2022-09-13T01:56:09;100840.69;;;18.29;93.78
44920;BME280;30655;53.094;6.072;2022-09-13T01:58:41;100869.25;;;18.54;93.91
44920;BME280;30655;53.094;6.072;2022-09-13T02:01:14;100895.34;;;18.69;94.13
44920;BME280;30655;53.094;6.072;2022-09-13T02:03:48;100963.06;;;19.03;94.81
44920;BME280;30655;53.094;6.072;2022-09-13T02:06:20;100805.25;;;18.07;94.14
44920;BME280;30655;53.094;6.072;2022-09-13T02:08:50;100883.59;;;18.60;94.41
44920;BME280;30655;53.094;6.072;2022-09-13T02:11:23;100974.34;;;19.10;94.74
44920;BME280;30655;53.094;6.072;2022-09-13T02:13:59;100959.84;;;19.01;94.38
44920;BME280;30655;53.094;6.072;2022-09-13T02:16:37;100950.16;;;19.03;94.73
44920;BME280;30655;53.094;6.072;2022-09-13T02:19:13;100966.94;;;19.10;94.78
44920;BME280;30655;53.094;6.072;2022-09-13T02:21:46;100889.72;;;18.74;94.87
44920;BME280;30655;53.094;6.072;2022-09-13T02:24:18;100868.94;;;18.56;94.97
44920;BME280;30655;53.094;6.072;2022-09-13T02:26:51;100953.22;;;19.10;95.02
44920;BME280;30655;53.094;6.072;2022-09-13T02:29:28;100957.91;;;19.10;95.05
44920;BME280;30655;53.094;6.072;2022-09-13T02:32:04;100785.75;;;18.00;95.23
44920;BME280;30655;53.094;6.072;2022-09-13T02:34:38;100948.41;;;19.07;95.56
44920;BME280;30655;53.094;6.072;2022-09-13T02:50:47;100954.69;;;19.16;95.85
44920;BME280;30655;53.094;6.072;2022-09-13T02:53:26;100899.09;;;18.90;95.90
44920;BME280;30655;53.094;6.072;2022-09-13T02:56:04;100906.19;;;18.91;96.24
44920;BME280;30655;53.094;6.072;2022-09-13T02:58:47;100958.41;;;19.20;96.36
44920;BME280;30655;53.094;6.072;2022-09-13T03:01:19;100904.72;;;18.85;96.59
44920;BME280;30655;53.094;6.072;2022-09-13T03:03:50;100958.53;;;19.24;96.79
44920;BME280;30655;53.094;6.072;2022-09-13T03:06:22;100925.03;;;19.01;96.69
44920;BME280;30655;53.094;6.072;2022-09-13T03:08:56;100864.88;;;18.53;97.06
44920;BME280;30655;53.094;6.072;2022-09-13T03:11:35;100903.25;;;18.62;96.94
44920;BME280;30655;53.094;6.072;2022-09-13T03:14:22;100929.88;;;18.87;96.63
44920;BME280;30655;53.094;6.072;2022-09-13T03:17:10;100938.09;;;18.87;96.27
44920;BME280;30655;53.094;6.072;2022-09-13T03:19:53;100983.53;;;19.05;96.35
44920;BME280;30655;53.094;6.072;2022-09-13T03:22:35;100884.16;;;18.39;95.96
44920;BME280;30655;53.094;6.072;2022-09-13T03:25:18;100969.97;;;19.00;95.95
44920;BME280;30655;53.094;6.072;2022-09-13T03:28:00;100987.22;;;19.01;95.82
44920;BME280;30655;53.094;6.072;2022-09-13T03:30:43;100951.28;;;18.85;95.73
44920;BME280;30655;53.094;6.072;2022-09-13T03:33:21;100921.63;;;18.70;95.58
44920;BME280;30655;53.094;6.072;2022-09-13T03:36:10;100966.44;;;18.91;95.46
44920;BME280;30655;53.094;6.072;2022-09-13T03:38:46;100894.19;;;18.53;95.18
44920;BME280;30655;53.094;6.072;2022-09-13T03:41:23;100936.47;;;18.77;95.19
44920;BME280;30655;53.094;6.072;2022-09-13T03:44:00;100992.25;;;19.07;95.03
44920;BME280;30655;53.094;6.072;2022-09-13T03:46:34;100898.38;;;18.50;94.96
44920;BME280;30655;53.094;6.072;2022-09-13T03:49:11;100926.13;;;18.66;94.77
44920;BME280;30655;53.094;6.072;2022-09-13T03:51:43;100985.75;;;19.03;94.70
44920;BME280;30655;53.094;6.072;2022-09-13T03:54:22;100979.50;;;19.03;94.51
44920;BME280;30655;53.094;6.072;2022-09-13T03:57:14;100993.53;;;19.01;94.39
44920;BME280;30655;53.094;6.072;2022-09-13T03:59:45;100985.75;;;19.03;94.34
44920;BME280;30655;53.094;6.072;2022-09-13T04:02:14;100963.03;;;18.85;94.27
44920;BME280;30655;53.094;6.072;2022-09-13T04:04:45;100985.31;;;19.01;94.14
44920;BME280;30655;53.094;6.072;2022-09-13T04:07:14;100815.53;;;17.93;94.18
44920;BME280;30655;53.094;6.072;2022-09-13T04:09:45;100898.19;;;18.46;94.12
44920;BME280;30655;53.094;6.072;2022-09-13T04:12:12;101006.09;;;19.02;94.07
44920;BME280;30655;53.094;6.072;2022-09-13T04:14:39;100993.53;;;19.01;94.21
44920;BME280;30655;53.094;6.072;2022-09-13T04:17:14;100820.00;;;17.89;94.16
44920;BME280;30655;53.094;6.072;2022-09-13T04:19:48;100951.41;;;18.63;94.18
44920;BME280;30655;53.094;6.072;2022-09-13T04:22:14;100993.16;;;18.94;94.23
44920;BME280;30655;53.094;6.072;2022-09-13T04:24:46;101000.28;;;18.95;94.38
44920;BME280;30655;53.094;6.072;2022-09-13T04:27:16;100986.88;;;18.93;94.60
44920;BME280;30655;53.094;6.072;2022-09-13T04:29:43;100990.13;;;18.96;94.59
44920;BME280;30655;53.094;6.072;2022-09-13T04:32:21;100987.69;;;18.94;94.38
44920;BME280;30655;53.094;6.072;2022-09-13T04:35:10;101004.94;;;18.95;94.05
44920;BME280;30655;53.094;6.072;2022-09-13T04:37:43;100938.19;;;18.56;93.96
44920;BME280;30655;53.094;6.072;2022-09-13T04:40:19;100872.38;;;18.13;94.48
44920;BME280;30655;53.094;6.072;2022-09-13T04:42:56;100949.66;;;18.67;94.49
44920;BME280;30655;53.094;6.072;2022-09-13T04:45:24;100997.53;;;18.95;94.74
44920;BME280;30655;53.094;6.072;2022-09-13T04:47:57;101005.75;;;18.95;94.62
44920;BME280;30655;53.094;6.072;2022-09-13T04:50:38;100996.25;;;18.92;94.17
44920;BME280;30655;53.094;6.072;2022-09-13T04:53:07;101004.78;;;18.91;94.25
44920;BME280;30655;53.094;6.072;2022-09-13T04:55:37;100890.88;;;18.16;94.37
44920;BME280;30655;53.094;6.072;2022-09-13T04:58:07;100826.56;;;17.79;94.26
44920;BME280;30655;53.094;6.072;2022-09-13T05:00:37;100942.81;;;18.47;94.63
44920;BME280;30655;53.094;6.072;2022-09-13T05:03:16;101009.91;;;18.84;94.46
44920;BME280;30655;53.094;6.072;2022-09-13T05:05:47;101012.19;;;18.82;94.73
44920;BME280;30655;53.094;6.072;2022-09-13T05:08:24;100999.25;;;18.74;94.66
44920;BME280;30655;53.094;6.072;2022-09-13T05:11:03;100950.66;;;18.40;94.49
44920;BME280;30655;53.094;6.072;2022-09-13T05:13:33;100865.19;;;17.86;94.40
44920;BME280;30655;53.094;6.072;2022-09-13T05:16:12;101008.13;;;18.71;94.51
44920;BME280;30655;53.094;6.072;2022-09-13T05:18:44;100846.16;;;17.73;94.39
44920;BME280;30655;53.094;6.072;2022-09-13T05:21:17;101004.06;;;18.68;94.87
44920;BME280;30655;53.094;6.072;2022-09-13T05:23:53;101015.97;;;18.64;94.86
44920;BME280;30655;53.094;6.072;2022-09-13T05:26:32;100921.75;;;18.08;94.85
44920;BME280;30655;53.094;6.072;2022-09-13T05:28:59;100976.41;;;18.39;95.12
44920;BME280;30655;53.094;6.072;2022-09-13T05:31:30;100967.19;;;18.26;95.08
44920;BME280;30655;53.094;6.072;2022-09-13T05:34:01;101038.06;;;18.67;95.22
44920;BME280;30655;53.094;6.072;2022-09-13T05:36:28;100980.28;;;18.38;95.50
44920;BME280;30655;53.094;6.072;2022-09-13T05:39:01;101027.94;;;18.68;95.38
44920;BME280;30655;53.094;6.072;2022-09-13T05:41:51;100957.94;;;18.14;95.62
44920;BME280;30655;53.094;6.072;2022-09-13T05:44:18;100995.63;;;18.47;95.87
44920;BME280;30655;53.094;6.072;2022-09-13T05:46:48;100974.09;;;18.24;95.78
44920;BME280;30655;53.094;6.072;2022-09-13T05:49:17;101034.81;;;18.65;95.84
44920;BME280;30655;53.094;6.072;2022-09-13T05:51:44;101034.00;;;18.65;95.67
44920;BME280;30655;53.094;6.072;2022-09-13T05:54:11;101041.13;;;18.66;95.64
44920;BME280;30655;53.094;6.072;2022-09-13T05:56:47;100988.78;;;18.28;95.46
44920;BME280;30655;53.094;6.072;2022-09-13T05:59:31;101031.44;;;18.68;95.42
44920;BME280;30655;53.094;6.072;2022-09-13T06:02:26;101039.66;;;18.68;95.32
44920;BME280;30655;53.094;6.072;2022-09-13T06:05:09;101031.63;;;18.72;95.48
44920;BME280;30655;53.094;6.072;2022-09-13T06:08:08;101045.50;;;18.75;95.65
44920;BME280;30655;53.094;6.072;2022-09-13T06:11:03;101046.31;;;18.76;95.26
44920;BME280;30655;53.094;6.072;2022-09-13T06:17:26;100987.84;;;18.32;95.25
44920;BME280;30655;53.094;6.072;2022-09-13T06:19:46;101055.63;;;18.75;95.38
44920;BME280;30655;53.094;6.072;2022-09-13T06:22:19;101026.44;;;18.62;95.70
44920;BME280;30655;53.094;6.072;2022-09-13T06:25:19;100916.03;;;17.87;95.57
44920;BME280;30655;53.094;6.072;2022-09-13T06:27:58;101060.66;;;18.81;95.47
44920;BME280;30655;53.094;6.072;2022-09-13T06:31:31;100890.38;;;17.75;95.60
44920;BME280;30655;53.094;6.072;2022-09-13T06:34:29;101027.72;;;18.64;95.52
44920;BME280;30655;53.094;6.072;2022-09-13T06:36:57;101050.03;;;18.88;95.64
44920;BME280;30655;53.094;6.072;2022-09-13T06:39:26;100963.81;;;18.29;95.54
44920;BME280;30655;53.094;6.072;2022-09-13T06:41:58;101062.16;;;18.96;95.61
44920;BME280;30655;53.094;6.072;2022-09-13T06:44:55;101074.38;;;18.99;95.81
44920;BME280;30655;53.094;6.072;2022-09-13T06:47:22;100965.66;;;18.42;95.76
44920;BME280;30655;53.094;6.072;2022-09-13T06:49:54;101040.06;;;18.92;95.90
44920;BME280;30655;53.094;6.072;2022-09-13T06:52:20;101019.09;;;18.79;95.82
44920;BME280;30655;53.094;6.072;2022-09-13T06:54:47;101066.38;;;19.11;95.77
44920;BME280;30655;53.094;6.072;2022-09-13T06:57:14;101057.66;;;19.00;95.62
44920;BME280;30655;53.094;6.072;2022-09-13T06:59:41;101057.19;;;19.07;95.54
44920;BME280;30655;53.094;6.072;2022-09-13T07:02:08;101049.94;;;19.02;95.20
44920;BME280;30655;53.094;6.072;2022-09-13T07:04:35;101057.94;;;18.99;95.32
44920;BME280;30655;53.094;6.072;2022-09-13T07:07:03;101032.47;;;18.81;95.48
44920;BME280;30655;53.094;6.072;2022-09-13T07:09:29;101061.50;;;18.99;95.50
44920;BME280;30655;53.094;6.072;2022-09-13T07:11:56;101058.94;;;19.03;95.31
44920;BME280;30655;53.094;6.072;2022-09-13T07:14:25;101063.56;;;18.93;94.72
44920;BME280;30655;53.094;6.072;2022-09-13T07:16:52;101069.88;;;18.94;94.03
44920;BME280;30655;53.094;6.072;2022-09-13T07:19:22;101067.63;;;18.96;93.81
44920;BME280;30655;53.094;6.072;2022-09-13T07:21:49;101047.63;;;18.87;93.48
44920;BME280;30655;53.094;6.072;2022-09-13T07:24:19;101073.13;;;19.05;92.91
44920;BME280;30655;53.094;6.072;2022-09-13T07:26:46;101072.16;;;19.09;92.53
44920;BME280;30655;53.094;6.072;2022-09-13T07:29:16;101073.63;;;19.15;92.08
44920;BME280;30655;53.094;6.072;2022-09-13T07:31:45;101047.94;;;18.94;91.36
44920;BME280;30655;53.094;6.072;2022-09-13T07:34:14;101068.63;;;19.09;89.76
44920;BME280;30655;53.094;6.072;2022-09-13T07:36:41;101081.03;;;19.15;89.25
44920;BME280;30655;53.094;6.072;2022-09-13T07:39:08;101087.47;;;19.10;88.66
44920;BME280;30655;53.094;6.072;2022-09-13T07:41:42;101060.53;;;18.95;88.17
44920;BME280;30655;53.094;6.072;2022-09-13T07:44:10;101082.31;;;19.09;87.84
44920;BME280;30655;53.094;6.072;2022-09-13T07:46:38;101088.44;;;19.06;87.18
44920;BME280;30655;53.094;6.072;2022-09-13T07:49:05;101080.38;;;19.01;86.72
44920;BME280;30655;53.094;6.072;2022-09-13T07:51:34;101090.00;;;18.98;85.88
44920;BME280;30655;53.094;6.072;2022-09-13T07:54:04;101087.13;;;18.95;85.72
44920;BME280;30655;53.094;6.072;2022-09-13T07:56:32;101086.66;;;18.92;85.07
44920;BME280;30655;53.094;6.072;2022-09-13T07:59:05;101087.91;;;18.86;84.13
44920;BME280;30655;53.094;6.072;2022-09-13T08:01:34;101079.81;;;18.73;83.89
44920;BME280;30655;53.094;6.072;2022-09-13T08:04:03;101091.59;;;18.82;82.39
44920;BME280;30655;53.094;6.072;2022-09-13T08:06:32;101056.06;;;18.60;82.41
44920;BME280;30655;53.094;6.072;2022-09-13T08:08:59;101069.13;;;18.63;82.44
44920;BME280;30655;53.094;6.072;2022-09-13T08:11:30;101098.03;;;18.77;81.05
44920;BME280;30655;53.094;6.072;2022-09-13T08:13:57;101101.41;;;18.83;81.49
44920;BME280;30655;53.094;6.072;2022-09-13T08:16:27;101075.09;;;18.73;80.92
44920;BME280;30655;53.094;6.072;2022-09-13T08:18:55;101103.84;;;18.93;80.53
44920;BME280;30655;53.094;6.072;2022-09-13T08:21:23;101109.03;;;19.03;80.40
44920;BME280;30655;53.094;6.072;2022-09-13T08:23:53;101111.16;;;19.06;78.77
44920;BME280;30655;53.094;6.072;2022-09-13T08:26:20;101106.31;;;19.03;79.01
44920;BME280;30655;53.094;6.072;2022-09-13T08:28:47;101113.75;;;19.11;78.79
44920;BME280;30655;53.094;6.072;2022-09-13T08:31:15;101110.38;;;19.14;78.89
44920;BME280;30655;53.094;6.072;2022-09-13T08:33:44;101117.31;;;19.20;77.48
44920;BME280;30655;53.094;6.072;2022-09-13T08:36:13;101105.69;;;19.06;75.81
44920;BME280;30655;53.094;6.072;2022-09-13T08:38:44;101108.28;;;19.11;75.68
44920;BME280;30655;53.094;6.072;2022-09-13T08:41:24;101104.06;;;19.05;75.44
44920;BME280;30655;53.094;6.072;2022-09-13T08:43:56;101114.09;;;19.18;75.90
44920;BME280;30655;53.094;6.072;2022-09-13T08:46:28;101121.53;;;19.26;75.88
44920;BME280;30655;53.094;6.072;2022-09-13T08:49:05;101128.81;;;19.31;75.30
44920;BME280;30655;53.094;6.072;2022-09-13T08:51:41;101114.28;;;19.30;75.67
44920;BME280;30655;53.094;6.072;2022-09-13T08:54:12;101101.25;;;19.27;74.82
44920;BME280;30655;53.094;6.072;2022-09-13T08:56:43;101126.06;;;19.40;74.35
44920;BME280;30655;53.094;6.072;2022-09-13T08:59:38;101133.81;;;19.38;73.76
44920;BME280;30655;53.094;6.072;2022-09-13T09:02:18;101122.88;;;19.38;74.04
44920;BME280;30655;53.094;6.072;2022-09-13T09:04:54;101128.81;;;19.40;73.53
44920;BME280;30655;53.094;6.072;2022-09-13T09:07:25;101124.38;;;19.52;73.81
44920;BME280;30655;53.094;6.072;2022-09-13T09:09:55;101124.22;;;19.57;73.02
44920;BME280;30655;53.094;6.072;2022-09-13T09:12:28;101115.63;;;19.50;72.51
44920;BME280;30655;53.094;6.072;2022-09-13T09:15:01;101120.16;;;19.63;71.65
44920;BME280;30655;53.094;6.072;2022-09-13T09:17:33;101115.81;;;19.71;70.52
44920;BME280;30655;53.094;6.072;2022-09-13T09:20:18;101096.44;;;19.59;70.66
44920;BME280;30655;53.094;6.072;2022-09-13T09:22:47;101120.34;;;19.67;70.70
44920;BME280;30655;53.094;6.072;2022-09-13T09:25:14;101111.94;;;19.63;69.89
44920;BME280;30655;53.094;6.072;2022-09-13T09:27:41;101111.28;;;19.58;68.79
44920;BME280;30655;53.094;6.072;2022-09-13T09:30:12;101104.19;;;19.57;68.07
44920;BME280;30655;53.094;6.072;2022-09-13T09:32:48;101043.19;;;19.25;68.63
44920;BME280;30655;53.094;6.072;2022-09-13T09:35:29;101123.06;;;19.93;68.00
44920;BME280;30655;53.094;6.072;2022-09-13T09:38:10;101125.66;;;20.06;66.90
44920;BME280;30655;53.094;6.072;2022-09-13T09:40:39;101133.53;;;20.08;66.85
44920;BME280;30655;53.094;6.072;2022-09-13T09:43:14;101133.06;;;20.14;65.40
44920;BME280;30655;53.094;6.072;2022-09-13T09:45:45;101125.78;;;20.18;65.44
44920;BME280;30655;53.094;6.072;2022-09-13T09:48:15;101108.06;;;20.07;65.35
44920;BME280;30655;53.094;6.072;2022-09-13T09:50:48;101126.13;;;20.08;65.18
44920;BME280;30655;53.094;6.072;2022-09-13T09:53:21;101108.69;;;20.04;66.43
44920;BME280;30655;53.094;6.072;2022-09-13T09:55:53;101111.09;;;20.40;66.98
44920;BME280;30655;53.094;6.072;2022-09-13T09:58:36;101115.75;;;20.95;62.63
44920;BME280;30655;53.094;6.072;2022-09-13T10:01:04;101126.09;;;21.57;64.87
44920;BME280;30655;53.094;6.072;2022-09-13T10:03:36;101105.41;;;21.71;62.72
44920;BME280;30655;53.094;6.072;2022-09-13T10:06:13;101115.63;;;21.71;60.82
44920;BME280;30655;53.094;6.072;2022-09-13T10:08:43;101119.38;;;21.66;61.60
44920;BME280;30655;53.094;6.072;2022-09-13T10:11:13;101119.44;;;21.37;61.59
44920;BME280;30655;53.094;6.072;2022-09-13T10:13:56;101077.88;;;20.71;59.82
44920;BME280;30655;53.094;6.072;2022-09-13T10:16:25;101059.66;;;20.58;62.06
44920;BME280;30655;53.094;6.072;2022-09-13T10:20:58;100991.66;;;20.08;61.15
44920;BME280;30655;53.094;6.072;2022-09-13T10:29:26;101087.31;;;22.93;58.92
44920;BME280;30655;53.094;6.072;2022-09-13T10:32:07;100973.31;;;23.13;59.03
44920;BME280;30655;53.094;6.072;2022-09-13T10:34:58;101003.28;;;24.11;57.10
44920;BME280;30655;53.094;6.072;2022-09-13T10:40:41;101051.41;;;25.96;51.61
44920;BME280;30655;53.094;6.072;2022-09-13T10:43:30;101105.56;;;26.13;46.80
44920;BME280;30655;53.094;6.072;2022-09-13T10:46:21;100983.56;;;24.75;46.64
44920;BME280;30655;53.094;6.072;2022-09-13T10:49:25;100969.19;;;24.85;49.44
44920;BME280;30655;53.094;6.072;2022-09-13T10:56:01;100970.47;;;25.84;42.87
44920;BME280;30655;53.094;6.072;2022-09-13T10:58:35;100982.50;;;26.37;45.11
44920;BME280;30655;53.094;6.072;2022-09-13T11:09:09;100976.66;;;25.77;41.51
44920;BME280;30655;53.094;6.072;2022-09-13T11:35:57;101045.56;;;26.01;42.76
44920;BME280;30655;53.094;6.072;2022-09-13T11:38:33;100972.88;;;25.47;41.46
44920;BME280;30655;53.094;6.072;2022-09-13T11:48:00;100972.41;;;24.71;41.73
44920;BME280;30655;53.094;6.072;2022-09-13T11:57:50;101014.91;;;25.71;42.03
44920;BME280;30655;53.094;6.072;2022-09-13T12:00:39;101099.13;;;25.70;42.57
44920;BME280;30655;53.094;6.072;2022-09-13T12:03:41;101080.22;;;25.38;42.95
44920;BME280;30655;53.094;6.072;2022-09-13T12:27:05;101109.72;;;24.52;44.68
44920;BME280;30655;53.094;6.072;2022-09-13T12:29:53;100964.41;;;23.32;43.73
44920;BME280;30655;53.094;6.072;2022-09-13T12:44:18;100982.38;;;23.26;46.47
44920;BME280;30655;53.094;6.072;2022-09-13T12:50:41;101120.59;;;23.89;45.82
44920;BME280;30655;53.094;6.072;2022-09-13T12:53:26;101109.66;;;23.92;45.52
44920;BME280;30655;53.094;6.072;2022-09-13T12:56:13;101103.72;;;24.06;45.64
44920;BME280;30655;53.094;6.072;2022-09-13T13:09:34;100959.75;;;22.56;44.33
44920;BME280;30655;53.094;6.072;2022-09-13T13:17:16;101109.69;;;23.28;46.89
44920;BME280;30655;53.094;6.072;2022-09-13T13:19:50;100991.25;;;22.10;47.41
44920;BME280;30655;53.094;6.072;2022-09-13T13:26:44;101116.59;;;22.98;48.00
44920;BME280;30655;53.094;6.072;2022-09-13T13:32:36;101012.75;;;22.41;47.95
44920;BME280;30655;53.094;6.072;2022-09-13T13:35:48;100978.91;;;22.41;47.80
44920;BME280;30655;53.094;6.072;2022-09-13T13:55:47;101079.53;;;24.15;44.30
44920;BME280;30655;53.094;6.072;2022-09-13T14:36:27;101031.22;;;24.09;42.53
44920;BME280;30655;53.094;6.072;2022-09-13T14:50:02;101094.34;;;23.67;43.97
44920;BME280;30655;53.094;6.072;2022-09-13T15:00:47;101114.97;;;22.85;45.86
44920;BME280;30655;53.094;6.072;2022-09-13T15:03:54;101116.69;;;22.77;47.29
44920;BME280;30655;53.094;6.072;2022-09-13T15:10:44;100943.78;;;22.25;46.36
44920;BME280;30655;53.094;6.072;2022-09-13T15:17:11;101062.06;;;23.55;44.92
44920;BME280;30655;53.094;6.072;2022-09-13T15:20:26;101103.13;;;24.13;44.68
44920;BME280;30655;53.094;6.072;2022-09-13T15:30:22;100966.06;;;23.21;43.55
44920;BME280;30655;53.094;6.072;2022-09-13T16:39:54;101122.41;;;20.85;50.36
44920;BME280;30655;53.094;6.072;2022-09-13T16:42:32;101116.59;;;20.78;50.22
44920;BME280;30655;53.094;6.072;2022-09-13T16:45:33;101045.53;;;20.30;50.56
44920;BME280;30655;53.094;6.072;2022-09-13T16:51:08;100937.75;;;19.49;51.10
44920;BME280;30655;53.094;6.072;2022-09-13T16:53:59;101013.66;;;20.00;51.64
44920;BME280;30655;53.094;6.072;2022-09-13T16:56:35;101081.88;;;20.36;52.06
44920;BME280;30655;53.094;6.072;2022-09-13T16:59:19;101082.97;;;20.43;51.96
44920;BME280;30655;53.094;6.072;2022-09-13T17:02:16;100911.47;;;19.30;52.16
44920;BME280;30655;53.094;6.072;2022-09-13T17:04:53;101041.91;;;20.00;52.45
44920;BME280;30655;53.094;6.072;2022-09-13T17:08:09;100922.91;;;19.24;53.04
44920;BME280;30655;53.094;6.072;2022-09-13T17:17:30;100963.88;;;19.20;55.75
44920;BME280;30655;53.094;6.072;2022-09-13T17:20:21;101074.34;;;19.81;55.17
44920;BME280;30655;53.094;6.072;2022-09-13T17:23:25;101114.84;;;20.01;56.17
44920;BME280;30655;53.094;6.072;2022-09-13T17:26:06;101119.22;;;20.02;54.95
44920;BME280;30655;53.094;6.072;2022-09-13T17:29:13;100938.53;;;18.89;55.93
44920;BME280;30655;53.094;6.072;2022-09-13T17:32:27;101084.53;;;19.72;56.25
44920;BME280;30655;53.094;6.072;2022-09-13T17:35:25;100929.38;;;18.68;55.88
44920;BME280;30655;53.094;6.072;2022-09-13T17:38:21;101112.41;;;19.83;55.52
44920;BME280;30655;53.094;6.072;2022-09-13T17:41:13;101117.59;;;19.75;55.49
44920;BME280;30655;53.094;6.072;2022-09-13T17:43:58;101081.09;;;19.41;55.66
44920;BME280;30655;53.094;6.072;2022-09-13T17:46:46;101015.28;;;18.98;55.57
44920;BME280;30655;53.094;6.072;2022-09-13T17:56:10;101115.41;;;19.29;56.71
44920;BME280;30655;53.094;6.072;2022-09-13T17:58:47;100946.72;;;18.15;56.27
44920;BME280;30655;53.094;6.072;2022-09-13T18:15:55;100936.44;;;17.90;57.48
44920;BME280;30655;53.094;6.072;2022-09-13T18:18:47;101043.63;;;18.54;57.36
44920;BME280;30655;53.094;6.072;2022-09-13T18:21:36;100939.19;;;17.90;57.38
44920;BME280;30655;53.094;6.072;2022-09-13T18:24:54;100933.31;;;17.74;57.61
44920;BME280;30655;53.094;6.072;2022-09-13T18:27:32;101103.03;;;18.84;57.92
44920;BME280;30655;53.094;6.072;2022-09-13T18:33:59;100963.06;;;17.76;58.09
44920;BME280;30655;53.094;6.072;2022-09-13T18:36:49;101097.63;;;18.62;58.25
44920;BME280;30655;53.094;6.072;2022-09-13T18:39:48;100949.25;;;17.58;58.29
44920;BME280;30655;53.094;6.072;2022-09-13T18:42:58;101059.38;;;18.17;58.36
44920;BME280;30655;53.094;6.072;2022-09-13T18:52:30;100919.66;;;17.30;59.02
44920;BME280;30655;53.094;6.072;2022-09-13T18:55:30;101010.66;;;17.75;59.08
44920;BME280;30655;53.094;6.072;2022-09-13T19:04:23;100965.41;;;17.24;59.89
44920;BME280;30655;53.094;6.072;2022-09-13T19:07:03;101113.53;;;18.06;60.35
44920;BME280;30655;53.094;6.072;2022-09-13T19:12:52;101088.09;;;17.84;60.92
44920;BME280;30655;53.094;6.072;2022-09-13T19:16:08;100944.72;;;16.73;61.33
44920;BME280;30655;53.094;6.072;2022-09-13T19:19:28;101116.47;;;17.74;62.30
44920;BME280;30655;53.094;6.072;2022-09-13T19:22:20;101113.69;;;17.66;62.78
44920;BME280;30655;53.094;6.072;2022-09-13T19:44:46;100923.09;;;16.36;64.08
44920;BME280;30655;53.094;6.072;2022-09-13T19:47:27;101037.78;;;17.13;64.39
44920;BME280;30655;53.094;6.072;2022-09-13T19:51:02;101048.81;;;17.08;64.52
44920;BME280;30655;53.094;6.072;2022-09-13T19:57:25;100994.66;;;16.60;64.60
44920;BME280;30655;53.094;6.072;2022-09-13T20:00:34;101100.00;;;17.16;65.10